Time;durP1;ratioP1;P1;durP2;ratioP2;P2;SDS_P1;SDS_P2;PMS_P1;PMS_P2;Temp;Humidity;BMP_temperature;BMP_pressure;BME280_temperature;BME280_humidity;BME280_pressure;Samples;Min_cycle;Max_cycle;Signal;HPM_P1;HPM_P2
2023/03/07 00:01:21;;;;;;;5.38;2.85;;;6.20;96.90;;;;;;5113474;28;20020;-79
2023/03/07 00:03:47;;;;;;;7.75;3.08;;;6.20;96.90;;;;;;5114445;28;20024;-79
2023/03/07 00:06:13;;;;;;;7.15;2.92;;;6.20;96.80;;;;;;5114275;28;20036;-79
2023/03/07 00:08:38;;;;;;;6.22;2.88;;;6.20;96.70;;;;;;5114214;28;20034;-79
2023/03/07 00:11:08;;;;;;;5.55;2.80;;;6.20;96.60;;;;;;5112294;28;20036;-79
2023/03/07 00:13:36;;;;;;;7.72;3.10;;;6.20;96.50;;;;;;5114021;28;20028;-79
2023/03/07 00:16:04;;;;;;;6.50;2.72;;;6.20;96.60;;;;;;5114099;28;20016;-79
2023/03/07 00:18:30;;;;;;;4.80;2.97;;;6.10;96.60;;;;;;5114043;28;20015;-79
2023/03/07 00:21:04;;;;;;;8.80;3.42;;;6.10;96.70;;;;;;5112953;28;20051;-79
2023/03/07 00:23:31;;;;;;;6.82;3.72;;;6.10;97.00;;;;;;5113988;28;20066;-80
2023/03/07 00:26:02;;;;;;;5.57;3.10;;;6.10;97.20;;;;;;5113946;28;20028;-79
2023/03/07 00:28:27;;;;;;;6.82;3.60;;;6.10;97.30;;;;;;5114073;28;20051;-79
2023/03/07 00:30:54;;;;;;;5.43;3.03;;;6.00;97.20;;;;;;5112937;28;20032;-78
2023/03/07 00:33:20;;;;;;;6.25;3.17;;;6.00;97.20;;;;;;5113729;28;20027;-78
2023/03/07 00:35:57;;;;;;;5.90;2.50;;;6.00;97.30;;;;;;5112658;28;20040;-79
2023/03/07 00:38:23;;;;;;;5.00;2.65;;;6.00;97.40;;;;;;5112824;28;20024;-79
2023/03/07 00:41:01;;;;;;;4.70;2.40;;;6.00;97.40;;;;;;5113733;28;20096;-79
2023/03/07 00:43:27;;;;;;;5.30;2.30;;;6.00;97.40;;;;;;5113747;28;20027;-79
2023/03/07 00:45:53;;;;;;;5.07;2.25;;;6.00;97.20;;;;;;5113670;28;20020;-78
2023/03/07 00:48:20;;;;;;;4.28;2.28;;;6.00;96.90;;;;;;5113609;28;20028;-80
2023/03/07 00:50:47;;;;;;;3.45;1.63;;;6.10;96.80;;;;;;5113570;28;20032;-78
2023/03/07 00:53:13;;;;;;;5.35;2.38;;;6.10;96.70;;;;;;5113481;28;20021;-79
2023/03/07 00:55:38;;;;;;;4.80;2.08;;;6.10;96.60;;;;;;5113552;28;20085;-79
2023/03/07 00:58:04;;;;;;;3.63;1.58;;;6.10;96.60;;;;;;5113595;28;20032;-79
2023/03/07 01:00:30;;;;;;;3.03;1.80;;;6.10;96.50;;;;;;5113660;28;20040;-79
2023/03/07 01:02:57;;;;;;;3.05;1.55;;;6.00;96.50;;;;;;5112441;28;20111;-79
2023/03/07 01:05:22;;;;;;;2.83;1.33;;;5.90;96.50;;;;;;5112602;28;20035;-79
2023/03/07 01:07:48;;;;;;;2.03;1.30;;;5.90;96.60;;;;;;5113423;28;20036;-79
2023/03/07 01:10:15;;;;;;;2.20;1.13;;;5.90;96.50;;;;;;5113436;28;20031;-79
2023/03/07 01:12:42;;;;;;;2.47;1.20;;;5.80;96.70;;;;;;5113396;28;20050;-79
2023/03/07 01:15:08;;;;;;;3.25;1.50;;;5.80;96.30;;;;;;5113391;28;20050;-79
2023/03/07 01:17:34;;;;;;;2.08;1.13;;;5.80;96.50;;;;;;5113297;28;20080;-79
2023/03/07 01:20:00;;;;;;;2.50;1.33;;;5.80;96.10;;;;;;5112389;28;20039;-79
2023/03/07 01:22:26;;;;;;;2.10;0.90;;;5.80;96.00;;;;;;5116408;28;20031;-79
2023/03/07 01:24:51;;;;;;;1.48;0.73;;;5.70;96.10;;;;;;5117382;28;20028;-79
2023/03/07 01:27:17;;;;;;;1.75;0.80;;;5.70;96.00;;;;;;5117384;28;20035;-79
2023/03/07 01:29:42;;;;;;;1.55;0.77;;;5.70;96.10;;;;;;5117228;28;20036;-79
2023/03/07 01:32:08;;;;;;;1.92;1.00;;;5.70;96.10;;;;;;5117293;28;20032;-78
2023/03/07 01:34:33;;;;;;;2.67;0.77;;;5.70;96.20;;;;;;5116968;28;20117;-78
2023/03/07 01:36:59;;;;;;;2.00;0.80;;;5.60;96.30;;;;;;5117135;28;20035;-79
2023/03/07 01:39:25;;;;;;;2.53;1.13;;;5.60;96.60;;;;;;5117275;28;20053;-78
2023/03/07 01:41:50;;;;;;;1.63;0.80;;;5.60;96.60;;;;;;5117010;28;20050;-79
2023/03/07 01:44:21;;;;;;;1.02;0.68;;;5.60;96.60;;;;;;5117004;28;20036;-79
2023/03/07 01:46:58;;;;;;;1.35;0.80;;;5.60;96.70;;;;;;5117088;28;20016;-79
2023/03/07 01:49:32;;;;;;;1.42;1.00;;;5.60;96.90;;;;;;5116931;28;20020;-78
2023/03/07 01:52:11;;;;;;;2.38;1.00;;;5.60;96.90;;;;;;5116916;28;20028;-78
2023/03/07 01:54:41;;;;;;;2.28;1.13;;;5.60;97.00;;;;;;5116817;28;20023;-79
2023/03/07 01:57:08;;;;;;;3.33;1.38;;;5.60;97.30;;;;;;5116941;28;20080;-79
2023/03/07 01:59:41;;;;;;;1.83;1.15;;;5.60;97.30;;;;;;5116721;28;20024;-79
2023/03/07 02:02:11;;;;;;;3.15;0.93;;;5.60;97.30;;;;;;5116708;28;20024;-79
2023/03/07 02:04:48;;;;;;;2.45;1.08;;;5.60;97.30;;;;;;5116593;28;20024;-79
2023/03/07 02:07:15;;;;;;;3.67;1.50;;;5.60;97.40;;;;;;5116597;28;20039;-79
2023/03/07 02:09:43;;;;;;;2.78;1.38;;;5.60;97.50;;;;;;5116436;28;20052;-79
2023/03/07 02:12:09;;;;;;;2.28;1.08;;;5.60;97.60;;;;;;5116371;28;20025;-79
2023/03/07 02:14:35;;;;;;;3.40;1.33;;;5.60;97.80;;;;;;5116394;28;20028;-79
2023/03/07 02:17:01;;;;;;;3.45;1.73;;;5.60;97.80;;;;;;5116327;28;20016;-78
2023/03/07 02:19:35;;;;;;;4.07;1.63;;;5.70;97.80;;;;;;5115326;28;20032;-78
2023/03/07 02:22:11;;;;;;;4.38;2.10;;;5.70;97.80;;;;;;5116327;28;20076;-79
2023/03/07 02:24:51;;;;;;;3.70;2.17;;;5.70;97.60;;;;;;5115238;28;20051;-79
2023/03/07 02:27:17;;;;;;;3.92;2.00;;;5.70;97.70;;;;;;5116216;28;20035;-79
2023/03/07 02:29:43;;;;;;;3.08;1.80;;;5.70;97.80;;;;;;5116182;28;20028;-78
2023/03/07 02:32:09;;;;;;;4.25;2.28;;;5.70;97.90;;;;;;5115678;28;20035;-78
2023/03/07 02:34:35;;;;;;;4.85;2.65;;;5.70;98.00;;;;;;5115148;28;20054;-78
2023/03/07 02:37:31;;;;;;;5.45;2.60;;;5.70;98.10;;;;;;5116077;28;20032;-79
2023/03/07 02:40:03;;;;;;;5.53;2.53;;;5.70;98.20;;;;;;5114711;28;20040;-79
2023/03/07 02:42:32;;;;;;;4.65;2.50;;;5.70;98.20;;;;;;5115979;28;20024;-78
2023/03/07 02:45:05;;;;;;;5.68;2.08;;;5.70;98.40;;;;;;5114880;28;20024;-78
2023/03/07 02:47:31;;;;;;;5.45;2.65;;;5.70;98.30;;;;;;5115809;28;20035;-79
2023/03/07 02:49:56;;;;;;;5.68;2.70;;;5.70;98.50;;;;;;5114900;28;20067;-78
2023/03/07 02:52:23;;;;;;;6.95;2.90;;;5.70;98.50;;;;;;5115633;28;20050;-79
2023/03/07 02:54:48;;;;;;;5.25;2.33;;;5.70;98.50;;;;;;5115617;28;20020;-78
2023/03/07 02:57:14;;;;;;;7.03;3.03;;;5.70;98.50;;;;;;5114599;28;20066;-79
2023/03/07 02:59:40;;;;;;;4.68;2.50;;;5.70;98.40;;;;;;5115665;28;20048;-79
2023/03/07 03:02:06;;;;;;;5.55;2.63;;;5.70;98.40;;;;;;5115558;28;20036;-78
2023/03/07 03:04:32;;;;;;;6.95;3.05;;;5.70;98.30;;;;;;5115589;28;20048;-79
2023/03/07 03:06:58;;;;;;;5.30;3.10;;;5.70;98.40;;;;;;5115441;28;20085;-79
2023/03/07 03:09:23;;;;;;;5.60;2.88;;;5.70;98.30;;;;;;5115330;28;20053;-79
2023/03/07 03:11:49;;;;;;;6.20;2.72;;;5.80;98.20;;;;;;5114217;28;20020;-78
2023/03/07 03:14:14;;;;;;;6.07;2.90;;;5.80;98.00;;;;;;5115421;28;20514;-79
2023/03/07 03:16:41;;;;;;;5.40;2.72;;;5.80;98.00;;;;;;5115198;28;20044;-79
2023/03/07 03:19:07;;;;;;;4.93;2.97;;;5.80;98.10;;;;;;5114260;28;20080;-79
2023/03/07 03:21:32;;;;;;;5.53;3.15;;;5.80;98.00;;;;;;5115154;28;20387;-79
2023/03/07 03:24:02;;;;;;;5.90;3.33;;;5.80;98.00;;;;;;5115052;28;20024;-79
2023/03/07 03:26:28;;;;;;;5.22;2.78;;;5.80;98.00;;;;;;5115099;28;20027;-79
2023/03/07 03:28:53;;;;;;;5.05;3.00;;;5.80;97.90;;;;;;5113949;28;20036;-79
2023/03/07 03:31:19;;;;;;;5.28;2.88;;;5.80;98.00;;;;;;5114936;28;20054;-79
2023/03/07 03:33:45;;;;;;;5.13;2.75;;;5.90;97.90;;;;;;5113844;28;20074;-78
2023/03/07 03:36:14;;;;;;;5.07;2.30;;;5.80;97.90;;;;;;5114648;28;20067;-78
2023/03/07 03:38:40;;;;;;;6.55;2.75;;;5.80;97.80;;;;;;5114765;28;20017;-79
2023/03/07 03:41:09;;;;;;;6.18;3.00;;;5.90;97.80;;;;;;5114741;28;20055;-78
2023/03/07 03:43:35;;;;;;;5.35;2.38;;;5.90;97.80;;;;;;5114613;28;20031;-78
2023/03/07 03:46:01;;;;;;;5.50;2.70;;;5.90;97.70;;;;;;5113712;28;20052;-78
2023/03/07 03:48:27;;;;;;;5.32;2.50;;;5.80;97.70;;;;;;5114604;28;20099;-79
2023/03/07 03:51:07;;;;;;;5.25;2.55;;;5.80;97.90;;;;;;5114551;28;20029;-79
2023/03/07 03:53:34;;;;;;;5.43;2.30;;;5.80;97.90;;;;;;5114415;28;20111;-78
2023/03/07 03:56:05;;;;;;;5.53;2.88;;;5.80;97.90;;;;;;5114460;28;20020;-79
2023/03/07 03:58:32;;;;;;;4.90;2.50;;;5.80;98.00;;;;;;5114395;28;20084;-78
2023/03/07 04:01:04;;;;;;;5.55;2.63;;;5.70;98.00;;;;;;5113478;28;20028;-78
2023/03/07 04:03:33;;;;;;;4.30;2.40;;;5.80;97.90;;;;;;5114372;28;20023;-79
2023/03/07 04:06:04;;;;;;;5.13;2.67;;;5.80;97.90;;;;;;5114265;28;20107;-79
2023/03/07 04:08:31;;;;;;;5.53;2.67;;;5.70;97.90;;;;;;5114317;28;20028;-78
2023/03/07 04:10:57;;;;;;;6.30;2.53;;;5.80;97.90;;;;;;5113314;28;20043;-80
2023/03/07 04:13:23;;;;;;;4.65;2.13;;;5.70;97.90;;;;;;5113132;28;20016;-78
2023/03/07 04:15:49;;;;;;;5.32;2.42;;;5.70;98.10;;;;;;5114088;28;20083;-78
2023/03/07 04:18:14;;;;;;;4.35;2.47;;;5.70;98.00;;;;;;5113202;28;20039;-79
2023/03/07 04:20:43;;;;;;;4.38;2.00;;;5.70;98.00;;;;;;5114012;28;20088;-79
2023/03/07 04:23:09;;;;;;;4.53;2.33;;;5.70;98.10;;;;;;5113087;28;20032;-79
2023/03/07 04:25:35;;;;;;;4.40;2.40;;;5.70;97.90;;;;;;5113987;28;20035;-79
2023/03/07 04:28:00;;;;;;;5.47;2.50;;;5.80;97.90;;;;;;5113056;28;20024;-79
2023/03/07 04:30:26;;;;;;;5.63;2.80;;;5.80;97.90;;;;;;5113908;28;20055;-79
2023/03/07 04:32:52;;;;;;;4.53;2.40;;;5.80;97.90;;;;;;5113774;28;20028;-79
2023/03/07 04:35:17;;;;;;;4.70;2.45;;;5.70;97.80;;;;;;5113626;28;20044;-80
2023/03/07 04:37:43;;;;;;;3.45;1.98;;;5.70;97.70;;;;;;5112744;28;20024;-79
2023/03/07 04:40:10;;;;;;;4.68;2.30;;;5.80;97.60;;;;;;5113762;28;20028;-79
2023/03/07 04:42:35;;;;;;;3.70;2.20;;;5.80;97.50;;;;;;5113685;28;20103;-79
2023/03/07 04:45:01;;;;;;;3.60;2.10;;;5.80;97.40;;;;;;5113698;28;20032;-79
2023/03/07 04:47:27;;;;;;;4.35;2.03;;;5.70;97.50;;;;;;5112728;28;20039;-79
2023/03/07 04:49:52;;;;;;;4.10;2.15;;;5.70;97.60;;;;;;5113675;28;20063;-78
2023/03/07 04:52:18;;;;;;;3.08;2.00;;;5.70;97.70;;;;;;5113512;28;20039;-79
2023/03/07 04:54:44;;;;;;;3.65;1.92;;;5.70;97.80;;;;;;5113716;28;20033;-78
2023/03/07 04:57:09;;;;;;;6.55;2.05;;;5.60;97.90;;;;;;5113014;28;20020;-78
2023/03/07 04:59:38;;;;;;;5.40;2.60;;;5.60;97.80;;;;;;5112615;28;20383;-79
2023/03/07 05:02:06;;;;;;;3.83;1.98;;;5.60;97.90;;;;;;5113509;28;20051;-78
2023/03/07 05:04:32;;;;;;;3.80;1.88;;;5.70;97.70;;;;;;5113556;28;20040;-79
2023/03/07 05:06:58;;;;;;;4.25;2.20;;;5.60;97.90;;;;;;5113517;28;20066;-79
2023/03/07 05:09:24;;;;;;;3.15;1.60;;;5.60;98.00;;;;;;5112335;28;20028;-79
2023/03/07 05:11:49;;;;;;;3.92;1.65;;;5.60;98.00;;;;;;5112327;28;20075;-79
2023/03/07 05:14:15;;;;;;;3.72;1.88;;;5.60;98.00;;;;;;5113433;28;20043;-80
2023/03/07 05:16:41;;;;;;;2.72;1.60;;;5.60;97.90;;;;;;5113398;28;20021;-79
2023/03/07 05:19:08;;;;;;;3.08;1.60;;;5.60;97.90;;;;;;5113344;28;20050;-79
2023/03/07 05:21:34;;;;;;;4.85;1.83;;;5.60;97.90;;;;;;5113356;28;20050;-79
2023/03/07 05:23:59;;;;;;;4.40;1.90;;;5.60;98.10;;;;;;5113307;28;20020;-78
2023/03/07 05:26:25;;;;;;;6.75;2.42;;;5.60;98.00;;;;;;5113270;28;20122;-78
2023/03/07 05:28:50;;;;;;;5.20;1.92;;;5.60;97.90;;;;;;5113262;28;20030;-78
2023/03/07 05:31:16;;;;;;;2.70;1.52;;;5.60;97.90;;;;;;5113257;28;20484;-78
2023/03/07 05:33:42;;;;;;;3.50;1.95;;;5.60;97.80;;;;;;5112199;28;20028;-78
2023/03/07 05:36:08;;;;;;;4.95;2.35;;;5.70;97.80;;;;;;5111905;28;20048;-78
2023/03/07 05:38:34;;;;;;;6.15;1.80;;;5.60;97.80;;;;;;5113327;28;20141;-78
2023/03/07 05:41:00;;;;;;;4.30;1.80;;;5.60;97.80;;;;;;5112120;28;20032;-78
2023/03/07 05:43:26;;;;;;;3.20;1.42;;;5.60;98.10;;;;;;5113142;28;20059;-78
2023/03/07 05:45:52;;;;;;;4.28;2.13;;;5.60;97.50;;;;;;5112958;28;20021;-79
2023/03/07 05:48:17;;;;;;;3.58;1.83;;;5.60;97.60;;;;;;5113099;28;20035;-78
2023/03/07 05:50:43;;;;;;;5.07;1.98;;;5.60;97.60;;;;;;5112022;28;20038;-78
2023/03/07 05:53:08;;;;;;;4.38;1.83;;;5.70;97.60;;;;;;5113076;28;20092;-78
2023/03/07 05:55:34;;;;;;;4.28;1.83;;;5.70;97.60;;;;;;5113141;28;20035;-79
2023/03/07 05:58:00;;;;;;;4.50;2.20;;;5.70;97.40;;;;;;5112998;28;20025;-78
2023/03/07 06:00:26;;;;;;;6.82;2.20;;;5.70;97.30;;;;;;5113076;28;20027;-78
2023/03/07 06:02:51;;;;;;;3.65;2.10;;;5.70;97.30;;;;;;5111949;28;20028;-78
2023/03/07 06:05:17;;;;;;;6.60;2.80;;;5.70;97.20;;;;;;5095160;28;20029;-79
2023/03/07 06:07:43;;;;;;;5.22;2.10;;;5.70;96.90;;;;;;5113071;28;20056;-79
2023/03/07 06:10:12;;;;;;;4.10;2.03;;;5.70;97.00;;;;;;5116461;28;20028;-79
2023/03/07 06:12:38;;;;;;;5.63;2.40;;;5.70;97.00;;;;;;5115412;28;20035;-79
2023/03/07 06:15:04;;;;;;;4.60;2.10;;;5.80;97.10;;;;;;5116430;28;20024;-79
2023/03/07 06:17:30;;;;;;;4.55;2.22;;;5.80;97.00;;;;;;5115712;28;20044;-79
2023/03/07 06:19:55;;;;;;;5.47;2.20;;;5.80;97.00;;;;;;5116380;28;20039;-78
2023/03/07 06:22:21;;;;;;;4.60;2.05;;;5.80;96.80;;;;;;5116303;28;20031;-78
2023/03/07 06:24:47;;;;;;;3.90;2.10;;;5.80;96.80;;;;;;5115171;28;20047;-79
2023/03/07 06:27:12;;;;;;;5.60;2.05;;;5.80;96.60;;;;;;5116197;28;20036;-78
2023/03/07 06:29:38;;;;;;;4.50;2.35;;;5.90;96.50;;;;;;5115189;28;20032;-79
2023/03/07 06:32:04;;;;;;;3.60;1.90;;;5.80;96.30;;;;;;5115103;28;20036;-79
2023/03/07 06:34:30;;;;;;;3.63;1.48;;;5.80;96.30;;;;;;5116190;28;20039;-79
2023/03/07 06:36:55;;;;;;;4.38;2.13;;;5.80;96.30;;;;;;5114971;28;20210;-79
2023/03/07 06:39:21;;;;;;;3.72;1.92;;;5.80;96.30;;;;;;5115016;28;20039;-80
2023/03/07 06:41:47;;;;;;;4.95;1.95;;;5.80;96.30;;;;;;5115897;28;20016;-79
2023/03/07 06:44:14;;;;;;;3.97;1.88;;;5.80;96.00;;;;;;5115861;28;20024;-79
2023/03/07 06:46:40;;;;;;;2.50;1.45;;;5.80;96.00;;;;;;5115777;28;20024;-79
2023/03/07 06:49:05;;;;;;;4.55;1.88;;;5.70;96.20;;;;;;5114771;28;20103;-79
2023/03/07 06:51:31;;;;;;;5.15;2.00;;;5.70;95.80;;;;;;5115732;28;20028;-79
2023/03/07 06:53:57;;;;;;;3.95;1.80;;;5.70;95.90;;;;;;5115603;28;20062;-78
2023/03/07 06:56:23;;;;;;;4.75;1.50;;;5.70;96.30;;;;;;5115589;28;20027;-79
2023/03/07 06:58:49;;;;;;;3.05;1.63;;;5.70;95.70;;;;;;5115572;28;20016;-78
2023/03/07 07:01:20;;;;;;;4.63;1.65;;;5.70;95.60;;;;;;5115516;28;20028;-78
2023/03/07 07:03:45;;;;;;;2.47;1.40;;;5.60;95.80;;;;;;5115525;28;20024;-78
2023/03/07 07:06:11;;;;;;;5.35;2.15;;;5.60;95.30;;;;;;5115460;28;20030;-78
2023/03/07 07:08:37;;;;;;;3.70;1.73;;;5.60;95.40;;;;;;5097552;28;20024;-78
2023/03/07 07:11:02;;;;;;;5.50;2.10;;;5.60;95.40;;;;;;5115302;28;20028;-78
2023/03/07 07:13:28;;;;;;;4.97;2.35;;;5.60;95.50;;;;;;5115147;28;20032;-77
2023/03/07 07:15:54;;;;;;;4.05;1.75;;;5.60;95.30;;;;;;5115267;28;20028;-77
2023/03/07 07:18:19;;;;;;;3.00;1.52;;;5.60;95.10;;;;;;5115128;28;20044;-78
2023/03/07 07:20:51;;;;;;;3.97;1.77;;;5.50;95.00;;;;;;5113806;28;20050;-77
2023/03/07 07:23:19;;;;;;;2.65;1.55;;;5.50;95.20;;;;;;5115219;28;20024;-77
2023/03/07 07:25:45;;;;;;;2.83;1.38;;;5.40;94.90;;;;;;5114973;28;20084;-78
2023/03/07 07:28:10;;;;;;;2.83;1.63;;;5.40;94.80;;;;;;5114984;28;20028;-77
2023/03/07 07:30:36;;;;;;;3.75;1.70;;;5.40;94.80;;;;;;5114939;28;20036;-78
2023/03/07 07:33:01;;;;;;;4.32;2.10;;;5.30;94.60;;;;;;5114785;28;20043;-78
2023/03/07 07:35:27;;;;;;;4.07;1.92;;;5.30;94.80;;;;;;5114639;28;20052;-77
2023/03/07 07:37:53;;;;;;;5.50;1.67;;;5.20;94.80;;;;;;5114824;28;20031;-78
2023/03/07 07:40:19;;;;;;;4.70;2.08;;;5.20;94.90;;;;;;5114777;28;20033;-78
2023/03/07 07:42:54;;;;;;;5.20;2.33;;;5.30;95.00;;;;;;5114741;28;20028;-78
2023/03/07 07:45:21;;;;;;;4.53;2.42;;;5.30;95.00;;;;;;5113659;28;20043;-78
2023/03/07 07:47:48;;;;;;;5.43;2.20;;;5.30;95.10;;;;;;5114606;28;20032;-77
2023/03/07 07:50:16;;;;;;;4.75;2.55;;;5.30;95.00;;;;;;5113557;28;20024;-78
2023/03/07 07:52:41;;;;;;;7.50;2.90;;;5.30;95.00;;;;;;5114460;28;20421;-77
2023/03/07 07:55:09;;;;;;;7.95;3.38;;;5.40;95.00;;;;;;5113709;28;20050;-78
2023/03/07 07:57:35;;;;;;;8.35;3.30;;;5.30;94.60;;;;;;5114452;28;20012;-77
2023/03/07 08:00:01;;;;;;;7.07;3.00;;;5.30;94.60;;;;;;5114430;28;20020;-77
2023/03/07 08:02:27;;;;;;;4.03;1.85;;;5.30;94.50;;;;;;5114288;28;20028;-77
2023/03/07 08:04:53;;;;;;;3.90;1.73;;;5.20;94.40;;;;;;5113365;28;20084;-76
2023/03/07 08:07:18;;;;;;;4.03;1.85;;;5.30;94.30;;;;;;5114211;28;20032;-77
2023/03/07 08:09:44;;;;;;;3.70;1.45;;;5.20;94.00;;;;;;5114133;28;20031;-77
2023/03/07 08:12:13;;;;;;;4.20;1.48;;;5.20;94.20;;;;;;5114057;28;20036;-78
2023/03/07 08:14:39;;;;;;;2.63;1.30;;;5.20;94.20;;;;;;5114056;28;20040;-78
2023/03/07 08:17:05;;;;;;;2.28;1.13;;;5.20;94.00;;;;;;5114046;28;20024;-79
2023/03/07 08:19:31;;;;;;;2.08;1.00;;;5.20;94.00;;;;;;5113072;28;20031;-78
2023/03/07 08:21:57;;;;;;;3.85;1.13;;;5.30;94.10;;;;;;5112968;28;20024;-78
2023/03/07 08:24:23;;;;;;;5.05;1.63;;;5.30;94.10;;;;;;5113980;28;20024;-79
2023/03/07 08:26:49;;;;;;;3.08;1.30;;;5.30;94.10;;;;;;5112965;28;20016;-79
2023/03/07 08:29:14;;;;;;;3.20;1.02;;;5.30;93.90;;;;;;5113892;28;20444;-79
2023/03/07 08:31:45;;;;;;;1.77;1.05;;;5.30;93.70;;;;;;5113104;28;20020;-79
2023/03/07 08:34:11;;;;;;;1.70;1.02;;;5.30;93.60;;;;;;5113037;28;20057;-79
2023/03/07 08:36:38;;;;;;;2.70;1.23;;;5.20;93.50;;;;;;5113507;28;20061;-79
2023/03/07 08:39:04;;;;;;;2.45;1.17;;;5.20;93.40;;;;;;5112744;28;20054;-82
2023/03/07 08:41:32;;;;;;;2.33;1.23;;;5.20;93.40;;;;;;5113900;28;20028;-81
2023/03/07 08:43:58;;;;;;;1.77;1.17;;;5.20;93.40;;;;;;5113734;28;20111;-80
2023/03/07 08:46:24;;;;;;;2.65;1.20;;;5.20;93.30;;;;;;5112786;28;20053;-80
2023/03/07 08:48:49;;;;;;;1.75;0.95;;;5.10;93.00;;;;;;5113631;28;20043;-79
2023/03/07 08:51:16;;;;;;;2.35;1.17;;;5.10;93.00;;;;;;5113547;28;20024;-82
2023/03/07 08:53:43;;;;;;;2.53;1.27;;;5.00;92.90;;;;;;5112528;28;20069;-82
2023/03/07 08:56:11;;;;;;;2.30;1.27;;;4.90;92.80;;;;;;5113494;28;20028;-82
2023/03/07 08:58:37;;;;;;;2.28;1.30;;;4.90;93.10;;;;;;5113474;28;20082;-82
2023/03/07 09:01:04;;;;;;;2.08;1.00;;;4.80;93.10;;;;;;5113656;28;20024;-82
2023/03/07 09:03:30;;;;;;;2.40;1.40;;;4.80;93.30;;;;;;5113448;28;20036;-80
2023/03/07 09:05:55;;;;;;;3.42;1.33;;;4.80;93.20;;;;;;5113516;28;20080;-82
2023/03/07 09:08:21;;;;;;;2.35;1.33;;;4.80;93.20;;;;;;5113419;28;20035;-81
2023/03/07 09:10:47;;;;;;;2.83;1.25;;;4.80;93.20;;;;;;5112477;28;20487;-82
2023/03/07 09:13:17;;;;;;;2.75;1.45;;;4.70;93.10;;;;;;5113349;28;20032;-82
2023/03/07 09:15:43;;;;;;;2.60;1.45;;;4.60;93.20;;;;;;5112441;28;20020;-81
2023/03/07 09:18:09;;;;;;;2.60;1.30;;;4.60;93.50;;;;;;5113398;28;20020;-81
2023/03/07 09:20:37;;;;;;;14.07;4.90;;;4.60;93.40;;;;;;5113328;28;20087;-82
2023/03/07 09:23:04;;;;;;;4.28;2.13;;;4.50;93.40;;;;;;5113480;28;20024;-81
2023/03/07 09:25:30;;;;;;;2.88;1.50;;;4.50;93.40;;;;;;5113310;28;20016;-82
2023/03/07 09:27:58;;;;;;;2.95;1.38;;;4.50;93.50;;;;;;5113313;28;20024;-81
2023/03/07 09:30:26;;;;;;;2.88;1.50;;;4.50;93.60;;;;;;5113281;28;20032;-82
2023/03/07 09:32:52;;;;;;;3.80;1.85;;;4.60;93.70;;;;;;5113230;28;20024;-82
2023/03/07 09:35:18;;;;;;;3.13;1.77;;;4.50;93.60;;;;;;5113057;28;20048;-81
2023/03/07 09:37:44;;;;;;;3.47;1.70;;;4.60;93.50;;;;;;5113372;28;20166;-82
2023/03/07 09:40:24;;;;;;;4.18;1.60;;;4.60;93.60;;;;;;5113164;28;20017;-82
2023/03/07 09:43:14;;;;;;;4.20;1.75;;;4.60;93.70;;;;;;5114093;28;20036;-81
2023/03/07 09:45:55;;;;;;;5.10;2.15;;;4.70;93.60;;;;;;5116065;28;20024;-79
2023/03/07 09:48:44;;;;;;;6.03;3.25;;;4.60;93.60;;;;;;5117033;28;20046;-82
2023/03/07 09:51:25;;;;;;;5.03;2.60;;;4.60;93.80;;;;;;5116993;28;20045;-81
2023/03/07 09:54:10;;;;;;;5.63;2.78;;;4.60;94.00;;;;;;5116879;28;20016;-82
2023/03/07 09:56:55;;;;;;;5.70;2.17;;;4.60;94.10;;;;;;5116882;28;20047;-82
2023/03/07 09:59:47;;;;;;;6.13;2.72;;;4.60;94.30;;;;;;5115834;28;20016;-81
2023/03/07 10:02:25;;;;;;;5.00;2.80;;;4.60;94.30;;;;;;5116765;28;20039;-81
2023/03/07 10:05:16;;;;;;;5.25;2.08;;;4.70;94.40;;;;;;5116693;28;20024;-82
2023/03/07 10:07:41;;;;;;;3.88;1.80;;;4.70;94.40;;;;;;5115714;28;20092;-80
2023/03/07 10:10:18;;;;;;;3.33;1.80;;;4.70;94.40;;;;;;5116363;28;20032;-81
2023/03/07 10:12:50;;;;;;;4.03;2.50;;;4.70;94.40;;;;;;5116435;28;20502;-84
2023/03/07 10:15:27;;;;;;;2.63;1.37;;;4.70;94.30;;;;;;5116521;28;20039;-84
2023/03/07 10:18:25;;;;;;;2.97;1.50;;;4.80;94.50;;;;;;5115239;28;20318;-82
2023/03/07 10:21:22;;;;;;;5.28;3.45;;;4.80;94.50;;;;;;5115669;28;20090;-81
2023/03/07 10:24:22;;;;;;;3.70;1.80;;;4.90;94.40;;;;;;5116408;28;20088;-81
2023/03/07 10:27:13;;;;;;;3.22;1.90;;;4.90;94.50;;;;;;5116387;28;20028;-81
2023/03/07 10:29:49;;;;;;;8.18;5.13;;;4.90;94.50;;;;;;5116029;28;20024;-83
2023/03/07 10:32:31;;;;;;;16.42;10.07;;;4.80;94.50;;;;;;5116115;28;20086;-83
2023/03/07 10:35:14;;;;;;;7.65;5.00;;;4.80;94.30;;;;;;5115993;28;20076;-82
2023/03/07 10:38:00;;;;;;;7.15;4.60;;;4.80;94.40;;;;;;5116088;28;20031;-82
2023/03/07 10:40:29;;;;;;;2.33;1.50;;;4.80;94.60;;;;;;5116034;28;20122;-81
2023/03/07 10:42:57;;;;;;;3.65;1.63;;;4.80;94.60;;;;;;5115938;28;20024;-81
2023/03/07 10:45:28;;;;;;;4.00;2.08;;;4.90;94.80;;;;;;5115996;28;20043;-81
2023/03/07 10:47:54;;;;;;;4.65;2.13;;;4.90;94.60;;;;;;5115920;28;20027;-82
2023/03/07 10:50:41;;;;;;;4.88;2.45;;;4.80;94.50;;;;;;5114635;28;20024;-82
2023/03/07 10:53:34;;;;;;;3.20;1.98;;;4.80;94.50;;;;;;5115526;28;20024;-77
2023/03/07 10:56:09;;;;;;;4.13;2.55;;;4.80;94.60;;;;;;5115014;28;20032;-81
2023/03/07 10:58:35;;;;;;;4.60;2.10;;;4.80;94.90;;;;;;5115586;28;20020;-83
2023/03/07 11:01:07;;;;;;;3.08;1.52;;;4.80;95.10;;;;;;5115506;28;20020;-82
2023/03/07 11:03:45;;;;;;;3.03;1.63;;;4.80;95.30;;;;;;5115679;28;20056;-82
2023/03/07 11:06:36;;;;;;;4.53;2.13;;;4.80;95.60;;;;;;5115393;28;20024;-81
2023/03/07 11:09:24;;;;;;;4.30;2.00;;;4.90;95.40;;;;;;5114322;28;20086;-81
2023/03/07 11:11:52;;;;;;;3.95;1.75;;;4.90;95.30;;;;;;5115326;28;20027;-81
2023/03/07 11:14:20;;;;;;;6.30;2.05;;;5.00;95.60;;;;;;5115279;28;20076;-81
2023/03/07 11:16:58;;;;;;;4.68;2.10;;;5.00;95.00;;;;;;5115415;28;20012;-81
2023/03/07 11:20:06;;;;;;;5.32;2.25;;;5.10;95.20;;;;;;5115224;28;20039;-81
2023/03/07 11:22:35;;;;;;;4.38;2.05;;;5.10;95.00;;;;;;5115097;28;20074;-81
2023/03/07 11:25:21;;;;;;;4.05;2.03;;;5.10;94.90;;;;;;5114207;28;20031;-81
2023/03/07 11:27:54;;;;;;;3.10;1.70;;;5.20;95.00;;;;;;5113252;28;20048;-81
2023/03/07 11:30:20;;;;;;;4.47;2.40;;;5.20;95.20;;;;;;5115157;28;20028;-80
2023/03/07 11:33:14;;;;;;;2.35;1.10;;;5.20;94.60;;;;;;5114955;28;20020;-81
2023/03/07 11:35:56;;;;;;;2.80;1.35;;;5.20;94.70;;;;;;5114756;28;20044;-81
2023/03/07 11:38:43;;;;;;;2.60;1.58;;;5.20;94.70;;;;;;5114920;28;20024;-82
2023/03/07 11:41:37;;;;;;;3.42;1.35;;;5.30;94.70;;;;;;5114916;28;20028;-83
2023/03/07 11:44:27;;;;;;;4.32;2.10;;;5.20;94.90;;;;;;5114729;28;20106;-83
2023/03/07 11:47:07;;;;;;;3.53;1.92;;;5.20;94.70;;;;;;5114823;28;20028;-83
2023/03/07 11:49:49;;;;;;;3.40;1.40;;;5.20;94.80;;;;;;5114841;28;20090;-81
2023/03/07 11:52:37;;;;;;;3.10;2.13;;;5.20;94.70;;;;;;5114572;28;20027;-82
2023/03/07 11:58:58;;;;;;;3.45;1.55;;;5.30;94.70;;;;;;5114644;28;20019;-81
2023/03/07 12:01:54;;;;;;;2.35;1.00;;;5.30;94.60;;;;;;5113366;28;20028;-82
2023/03/07 12:04:44;;;;;;;0.65;0.52;;;5.30;94.70;;;;;;5114316;28;20020;-81
2023/03/07 12:07:43;;;;;;;2.80;1.50;;;5.30;94.70;;;;;;5114461;28;20020;-81
2023/03/07 12:10:33;;;;;;;2.70;1.67;;;5.30;94.50;;;;;;5113786;28;20020;-82
2023/03/07 12:13:41;;;;;;;4.10;1.83;;;5.20;94.70;;;;;;5113240;28;20035;-80
2023/03/07 12:16:14;;;;;;;2.22;1.08;;;5.20;94.90;;;;;;5113285;28;20036;-82
2023/03/07 12:19:36;;;;;;;4.25;1.80;;;5.30;95.10;;;;;;5114186;28;20031;-81
2023/03/07 12:22:38;;;;;;;;;;;;;;;;;;;;;
2023/03/07 12:25:15;;;;;;;2.17;1.15;;;5.30;95.30;;;;;;5114256;28;20040;-82
2023/03/07 12:27:59;;;;;;;4.30;1.80;;;5.30;95.30;;;;;;5114181;28;20016;-82
2023/03/07 12:31:05;;;;;;;5.93;2.25;;;5.30;95.30;;;;;;5113999;28;20036;-81
2023/03/07 12:36:53;;;;;;;5.75;2.42;;;5.30;95.00;;;;;;5113585;28;20115;-82
2023/03/07 12:39:54;;;;;;;5.95;3.40;;;5.20;94.80;;;;;;5112664;28;20047;-82
2023/03/07 12:42:39;;;;;;;4.75;2.63;;;5.30;95.10;;;;;;5113915;28;20096;-82
2023/03/07 12:45:07;;;;;;;4.20;2.25;;;5.30;95.10;;;;;;5113921;28;20467;-84
2023/03/07 12:47:55;;;;;;;4.60;2.60;;;5.30;95.10;;;;;;5113686;28;20035;-83
2023/03/07 12:50:43;;;;;;;5.50;3.05;;;5.30;95.20;;;;;;5113734;28;20098;-83
2023/03/07 13:00:37;;;;;;;4.78;2.03;;;5.20;94.90;;;;;;5048158;28;20107;-82
2023/03/07 13:03:23;;;;;;;6.47;3.20;;;5.20;95.30;;;;;;5112549;28;20480;-82
2023/03/07 13:05:49;;;;;;;4.38;2.10;;;5.20;95.30;;;;;;5113354;28;20050;-82
2023/03/07 13:08:23;;;;;;;4.72;2.60;;;5.30;95.20;;;;;;5113478;28;20020;-83
2023/03/07 13:10:55;;;;;;;4.43;2.20;;;5.30;95.30;;;;;;5113562;28;20031;-83
2023/03/07 13:13:42;;;;;;;4.78;2.60;;;5.30;95.20;;;;;;5113446;28;20048;-84
2023/03/07 13:16:11;;;;;;;4.28;2.17;;;5.20;95.40;;;;;;5113498;28;20028;-83
2023/03/07 13:18:41;;;;;;;3.92;1.90;;;5.20;95.60;;;;;;5116743;28;20024;-83
2023/03/07 13:21:55;;;;;;;4.35;1.80;;;5.30;95.80;;;;;;5117540;28;20050;-83
2023/03/07 13:28:46;;;;;;;;;;;;;;;;;;;;;
2023/03/07 13:31:36;;;;;;;5.65;2.20;;;5.30;95.50;;;;;;4974493;29;20562;-83
2023/03/07 13:45:37;;;;;;;4.43;2.42;;;5.30;95.30;;;;;;4919404;29;20061;-83
2023/03/07 13:49:17;;;;;;;5.78;2.95;;;5.30;95.10;;;;;;4902261;29;20041;-83
2023/03/07 13:52:31;;;;;;;4.82;2.28;;;5.20;95.40;;;;;;4874670;29;20041;-82